AirNav   Pilot Hours Calculator
 
 1717 users online  

74R Horizon Airport
San Antonio, Texas, USA

GOING TO SAN ANTONIO?


FAA INFORMATION EFFECTIVE 14 JULY 2022

Location

FAA Identifier: 74R
Lat/Long: 29-17-04.5000N 098-29-53.9000W
29-17.075000N 098-29.898333W
29.2845833,-98.4983056
(estimated)
Elevation: 551 ft. / 168 m (estimated)
Variation: 07E (1985)
From city: 9 miles S of SAN ANTONIO, TX
Time zone: UTC -5 (UTC -6 during Standard Time)
Zip code: 78221

Airport Operations

Airport use: Open to the public
Activation date: 04/1945
Control tower: no
ARTCC: HOUSTON CENTER
FSS: SAN ANGELO FLIGHT SERVICE STATION
NOTAMs facility: SJT (NOTAM-D service available)
Attendance: UNATTND
Wind indicator: yes
Segmented circle: no

Airport Communications

CTAF: 122.9
WX ASOS at SSF (3 nm NE): PHONE 210-927-9391
WX ASOS at SAT (15 nm N): PHONE 210-805-5583
WX AWOS-3 at CVB (19 nm W): 119.25 (830-931-0232)
WX AWOS-3 at PEZ (20 nm S): 118.575 (830-569-5749)

Nearby radio navigation aids

VOR radial/distance  VOR name  Freq  Var
SSFr290/(3.3)STINSON VOR108.4009E
RNDr213/18.0RANDOLPH VORTAC112.3005E
SATr177/21.7SAN ANTONIO VORTAC116.8008E

 
NDB name  Hdg/Dist  Freq  Var  ID
DEVINE062/24.735907EHHH .... .... ....

Airport Services

Parking: hangars and tiedowns
Bottled oxygen: NONE
Bulk oxygen: NONE

Runway Information

Runway 11/29

Dimensions: 2360 x 80 ft. / 719 x 24 m
Surface: turf, in poor condition
RWY ROUGH & UNEVEN, NOT RGLRLY MNTND. NOT SUITABLE FOR ACFT.
RUNWAY 11  RUNWAY 29
Latitude: 29-17.161922N29-16.982842N
Longitude: 098-30.013272W098-29.618742W
Elevation: 551.0 ft.540.0 ft.
Traffic pattern: leftleft
Runway heading: 110 magnetic, 117 true290 magnetic, 297 true
Markings: nonenone
Obstructions: 30 ft. trees30 ft. trees

Runway 16/34

Dimensions: 2250 x 100 ft. / 686 x 30 m
Surface: turf, in good condition
RUNWAY 16  RUNWAY 34
Latitude: 29-17.255087N29-16.899377N
Longitude: 098-30.046423W098-29.924860W
Elevation: 551.0 ft.529.0 ft.
Traffic pattern: leftleft
Runway heading: 156 magnetic, 163 true336 magnetic, 343 true
Obstructions: 40 ft. trees40 ft. trees

Airport Ownership and Management from official FAA records

Ownership: Privately-owned
Owner: TOUDOUZE INVESTMENTS INC
PO BOX 40572
SAN ANTONIO, TX 78229
Phone (210) 859-9946
MANAGING PARTNER WILLIAM S. TOUDOUZE.
Manager: WM. TOUDOUZE
13680 PLEASANTON RD.
SAN ANTONIO, TX 78221
Phone (210) 859-9946
ALSO ARPT PHYSICAL ADDR.

Additional Remarks

RWY THRS MKD BY 3 FT WHITE CONES.
NO LINE OF SIGHT BTN RWYS 34 & 29.
WILD HOGS ON OR INVOF ARPT.
FOR CD CTC SAN ANTONIO APCH AT 210-805-5516.
NO COML FLT SVC.

Instrument Procedures

There are no published instrument procedures at 74R.

Some nearby airports with instrument procedures:

KSSF - Stinson Municipal Airport (3 nm NE)
KSKF - Kelly Field Airport (7 nm NW)
KSAT - San Antonio International Airport (15 nm N)
KRND - Randolph Air Force Base (19 nm NE)
KCVB - Castroville Municipal Airport (19 nm W)
KPEZ - Pleasanton Municipal Airport (20 nm S)
 
Loc | Ops | Rwys | IFR | FBO | Links
Com | Nav | Svcs | Stats | Notes
Area around 74R (Horizon Airport)
 
Road maps at: MapQuest Bing Google
 
Aerial photo
WARNING: Photo may not be current or correct
Aerial photo of 74R (Horizon Airport)
Photo by Bill Lux at Bull's Nest, Inc.
Photo taken 24-Oct-2013
looking east.

Do you have a better or more recent aerial photo of Horizon Airport that you would like to share? If so, please send us your photo.

 
Sectional chart

 
Airport distance calculator
Flying to Horizon Airport? Find the distance to fly.

From to 74R

Sunrise and sunset
Times for 10-Aug-2022
 Local
(UTC-5)
 Zulu
(UTC)
Morning civil twilight06:3511:35
Sunrise07:0012:00
Sunset20:1801:18
Evening civil twilight20:4301:43

Current date and time
Zulu (UTC)  10-Aug-2022 14:48:04
Local (UTC-5)  10-Aug-2022 09:48:04
 
METAR
KSSF 
3nm NE 
101353Z 18005KT 10SM FEW013 28/23 A3008 RMK AO2 SLP173 T02780233 $
KSKF 
6nm NW 
101356Z AUTO 15006KT 10SM CLR 27/27 A3009 RMK AO2 SLP181 T02730273 $
KSAT 
15nm N 
101351Z 21006KT 10SM SCT017 27/22 A3011 RMK AO2 SLP177 T02720222
KRND 
18nm NE 
101437Z COR VRB06KT 10SM SCT016 29/23 A3009 RMK AO2A SLP180 $ COR 1438
KCVB 
19nm W 
101438Z AUTO 16006KT 10SM CLR 29/21 A3014 RMK AO2
KPEZ 
20nm S 
101435Z AUTO 19006KT 10SM CLR 29/23 A3011 RMK AO2 T02940229
TAF
KSSF 
3nm NE 
100520Z 1006/1106 16008KT P6SM FEW070 SCT250 FM100800 15004KT P6SM SCT015 SCT250 FM101500 17008KT P6SM FEW060 SCT250 FM102300 10007G17KT P6SM VCSH BKN070 PROB30 1023/1103 VRB25KT 6SM -TSRA BKN050CB FM110300 15005KT P6SM VCSH BKN080
KSKF 
6nm NW 
101000Z 1010/1116 15006KT 9999 SKC QNH3004INS BECMG 1012/1013 17006KT 9999 SCT100 QNH3003INS BECMG 1019/1020 10009KT 9999 FEW050 SCT100 QNH3007INS BECMG 1023/1100 08009KT 9999 BKN080 BKN120 BKN250 QNH2992INS TEMPO 1023/1104 04010G20KT VCTS BECMG 1104/1105 15006KT 9999 BKN080 QNH3002INS TX38/1021Z TN24/1012Z
KSAT 
15nm N 
101121Z 1012/1118 17005KT P6SM SCT015 FM101500 17010KT P6SM SCT060 SCT250 FM102300 11007G17KT P6SM VCSH BKN070 PROB30 1023/1103 VRB25KT 6SM -TSRA BKN050CB FM110300 16007KT P6SM VCSH BKN080
KRND 
18nm NE 
101345Z 1013/1119 VRB06KT 9999 FEW015 SCT250 QNH2994INS TEMPO 1013/1015 BKN012 BECMG 1100/1101 15010G15KT 9999 VCSH FEW045 BKN060 QNH3002INS BECMG 1102/1103 16012G18KT 8000 -SHRA VCTS SCT035CB BKN050 QNH3004INS TEMPO 1103/1107 VRB16G30KT 4800 TSRA BKN035CB BECMG 1111/1112 25010G15KT 9999 VCSH BKN025 OVC040 QNH3003INS BECMG 1114/1115 28010G15KT 9999 NSW SCT030 BKN050 QNH3005INS TX38/1022Z TN27/1013Z
NOTAMs
Click for the latest NOTAMs
NOTAMs are issued by the DoD/FAA and will open in a separate window not controlled by AirNav.

 

 
 

Would you like to see your business listed on this page?

 If your business provides an interesting product or service to pilots, flight crews, aircraft, or users of the Horizon Airport, you should consider listing it here.  To start the listing process, click on the button below
 
Add a business
 

Other Pages about Horizon Airport

Update a link
 
Copyright © AirNav, LLC. All rights reserved. Privacy Policy  Contact